sensor_id;sensor_type;location;lat;lon;timestamp;P1;durP1;ratioP1;P2;durP2;ratioP2
53939;SDS011;39850;43.324;21.916;2024-03-17T00:04:01;32.0;;;30.0;;
53939;SDS011;39850;43.324;21.916;2024-03-17T00:08:38;30.0;;;28.0;;
53939;SDS011;39850;43.324;21.916;2024-03-17T00:13:15;30.0;;;28.0;;
53939;SDS011;39850;43.324;21.916;2024-03-17T00:17:52;30.0;;;28.0;;
53939;SDS011;39850;43.324;21.916;2024-03-17T00:22:28;30.0;;;28.0;;
53939;SDS011;39850;43.324;21.916;2024-03-17T00:27:06;30.0;;;28.0;;
53939;SDS011;39850;43.324;21.916;2024-03-17T00:31:43;30.0;;;28.0;;
53939;SDS011;39850;43.324;21.916;2024-03-17T01:08:38;25.0;;;23.0;;
53939;SDS011;39850;43.324;21.916;2024-03-17T01:13:18;25.0;;;23.0;;
53939;SDS011;39850;43.324;21.916;2024-03-17T01:17:55;26.0;;;24.0;;
53939;SDS011;39850;43.324;21.916;2024-03-17T01:22:32;26.0;;;24.0;;
53939;SDS011;39850;43.324;21.916;2024-03-17T01:27:10;25.0;;;23.0;;
53939;SDS011;39850;43.324;21.916;2024-03-17T01:31:47;25.0;;;23.0;;
53939;SDS011;39850;43.324;21.916;2024-03-17T01:36:23;26.0;;;24.0;;
53939;SDS011;39850;43.324;21.916;2024-03-17T01:41:00;26.0;;;24.0;;
53939;SDS011;39850;43.324;21.916;2024-03-17T01:45:37;25.0;;;23.0;;
53939;SDS011;39850;43.324;21.916;2024-03-17T01:50:14;25.0;;;23.0;;
53939;SDS011;39850;43.324;21.916;2024-03-17T01:54:51;25.0;;;23.0;;
53939;SDS011;39850;43.324;21.916;2024-03-17T02:27:20;23.0;;;21.0;;
53939;SDS011;39850;43.324;21.916;2024-03-17T02:31:57;23.0;;;21.0;;
53939;SDS011;39850;43.324;21.916;2024-03-17T02:36:34;23.0;;;22.0;;
53939;SDS011;39850;43.324;21.916;2024-03-17T02:41:11;23.0;;;22.0;;
53939;SDS011;39850;43.324;21.916;2024-03-17T02:45:48;23.0;;;22.0;;
53939;SDS011;39850;43.324;21.916;2024-03-17T02:50:25;23.0;;;21.0;;
53939;SDS011;39850;43.324;21.916;2024-03-17T02:55:02;23.0;;;21.0;;
53939;SDS011;39850;43.324;21.916;2024-03-17T02:59:39;23.0;;;22.0;;
53939;SDS011;39850;43.324;21.916;2024-03-17T03:04:15;23.0;;;22.0;;
53939;SDS011;39850;43.324;21.916;2024-03-17T03:08:52;23.0;;;21.0;;
53939;SDS011;39850;43.324;21.916;2024-03-17T03:13:28;23.0;;;21.0;;
53939;SDS011;39850;43.324;21.916;2024-03-17T03:50:30;17.0;;;17.0;;
53939;SDS011;39850;43.324;21.916;2024-03-17T03:55:10;17.0;;;17.0;;
53939;SDS011;39850;43.324;21.916;2024-03-17T03:59:46;18.0;;;17.0;;
53939;SDS011;39850;43.324;21.916;2024-03-17T04:04:23;18.0;;;17.0;;
53939;SDS011;39850;43.324;21.916;2024-03-17T04:09:00;17.0;;;17.0;;
53939;SDS011;39850;43.324;21.916;2024-03-17T04:13:37;17.0;;;17.0;;
53939;SDS011;39850;43.324;21.916;2024-03-17T04:18:14;18.0;;;17.0;;
53939;SDS011;39850;43.324;21.916;2024-03-17T04:22:51;18.0;;;17.0;;
53939;SDS011;39850;43.324;21.916;2024-03-17T04:27:29;17.0;;;17.0;;
53939;SDS011;39850;43.324;21.916;2024-03-17T04:32:07;17.0;;;17.0;;
53939;SDS011;39850;43.324;21.916;2024-03-17T05:09:07;15.0;;;15.0;;
53939;SDS011;39850;43.324;21.916;2024-03-17T05:13:44;15.0;;;15.0;;
53939;SDS011;39850;43.324;21.916;2024-03-17T05:18:22;15.0;;;15.0;;
53939;SDS011;39850;43.324;21.916;2024-03-17T05:22:59;15.0;;;15.0;;
53939;SDS011;39850;43.324;21.916;2024-03-17T05:27:35;15.0;;;15.0;;
53939;SDS011;39850;43.324;21.916;2024-03-17T05:32:12;15.0;;;15.0;;
53939;SDS011;39850;43.324;21.916;2024-03-17T05:36:50;16.0;;;16.0;;
53939;SDS011;39850;43.324;21.916;2024-03-17T05:41:27;16.0;;;16.0;;
53939;SDS011;39850;43.324;21.916;2024-03-17T05:46:11;16.0;;;16.0;;
53939;SDS011;39850;43.324;21.916;2024-03-17T05:50:48;17.0;;;16.0;;
53939;SDS011;39850;43.324;21.916;2024-03-17T05:55:25;17.0;;;16.0;;
53939;SDS011;39850;43.324;21.916;2024-03-17T06:27:46;17.0;;;16.0;;
53939;SDS011;39850;43.324;21.916;2024-03-17T06:32:22;17.0;;;16.0;;
53939;SDS011;39850;43.324;21.916;2024-03-17T06:36:59;18.0;;;16.0;;
53939;SDS011;39850;43.324;21.916;2024-03-17T06:41:36;18.0;;;16.0;;
53939;SDS011;39850;43.324;21.916;2024-03-17T06:46:13;18.0;;;16.0;;
53939;SDS011;39850;43.324;21.916;2024-03-17T06:50:50;17.0;;;17.0;;
53939;SDS011;39850;43.324;21.916;2024-03-17T06:55:27;17.0;;;17.0;;
53939;SDS011;39850;43.324;21.916;2024-03-17T07:00:08;18.0;;;17.0;;
53939;SDS011;39850;43.324;21.916;2024-03-17T07:04:44;18.0;;;17.0;;
53939;SDS011;39850;43.324;21.916;2024-03-17T07:09:22;17.0;;;17.0;;
53939;SDS011;39850;43.324;21.916;2024-03-17T07:13:59;17.0;;;17.0;;
53939;SDS011;39850;43.324;21.916;2024-03-17T07:50:57;18.0;;;17.0;;
53939;SDS011;39850;43.324;21.916;2024-03-17T07:55:34;18.0;;;17.0;;
53939;SDS011;39850;43.324;21.916;2024-03-17T08:00:13;18.0;;;18.0;;
53939;SDS011;39850;43.324;21.916;2024-03-17T08:04:51;18.0;;;18.0;;
53939;SDS011;39850;43.324;21.916;2024-03-17T08:09:28;18.0;;;18.0;;
53939;SDS011;39850;43.324;21.916;2024-03-17T08:14:05;18.0;;;18.0;;
53939;SDS011;39850;43.324;21.916;2024-03-17T08:18:42;18.0;;;18.0;;
53939;SDS011;39850;43.324;21.916;2024-03-17T08:23:18;18.0;;;18.0;;
53939;SDS011;39850;43.324;21.916;2024-03-17T08:27:55;18.0;;;18.0;;
53939;SDS011;39850;43.324;21.916;2024-03-17T08:32:32;18.0;;;18.0;;
53939;SDS011;39850;43.324;21.916;2024-03-17T09:09:34;34.0;;;34.0;;
53939;SDS011;39850;43.324;21.916;2024-03-17T09:14:11;34.0;;;34.0;;
53939;SDS011;39850;43.324;21.916;2024-03-17T09:18:49;34.0;;;34.0;;
53939;SDS011;39850;43.324;21.916;2024-03-17T09:23:27;34.0;;;34.0;;
53939;SDS011;39850;43.324;21.916;2024-03-17T09:28:06;34.0;;;34.0;;
53939;SDS011;39850;43.324;21.916;2024-03-17T09:32:42;34.0;;;34.0;;
53939;SDS011;39850;43.324;21.916;2024-03-17T09:37:18;33.0;;;34.0;;
53939;SDS011;39850;43.324;21.916;2024-03-17T09:41:56;33.0;;;34.0;;
53939;SDS011;39850;43.324;21.916;2024-03-17T09:46:35;33.0;;;34.0;;
53939;SDS011;39850;43.324;21.916;2024-03-17T09:51:24;32.0;;;33.0;;
53939;SDS011;39850;43.324;21.916;2024-03-17T09:56:12;32.0;;;33.0;;
53939;SDS011;39850;43.324;21.916;2024-03-17T10:29:00;30.0;;;24.0;;
53939;SDS011;39850;43.324;21.916;2024-03-17T10:33:37;30.0;;;24.0;;
53939;SDS011;39850;43.324;21.916;2024-03-17T10:38:14;26.0;;;23.0;;
53939;SDS011;39850;43.324;21.916;2024-03-17T10:42:51;26.0;;;23.0;;
53939;SDS011;39850;43.324;21.916;2024-03-17T10:47:29;23.0;;;22.0;;
53939;SDS011;39850;43.324;21.916;2024-03-17T10:52:17;23.0;;;22.0;;
53939;SDS011;39850;43.324;21.916;2024-03-17T10:57:12;23.0;;;22.0;;
53939;SDS011;39850;43.324;21.916;2024-03-17T11:02:01;22.0;;;22.0;;
53939;SDS011;39850;43.324;21.916;2024-03-17T11:06:40;22.0;;;22.0;;
53939;SDS011;39850;43.324;21.916;2024-03-17T11:11:36;23.0;;;22.0;;
53939;SDS011;39850;43.324;21.916;2024-03-17T11:16:27;23.0;;;22.0;;
53939;SDS011;39850;43.324;21.916;2024-03-17T11:49:52;27.0;;;28.0;;
53939;SDS011;39850;43.324;21.916;2024-03-17T11:54:39;27.0;;;28.0;;
53939;SDS011;39850;43.324;21.916;2024-03-17T11:59:21;29.0;;;29.0;;
53939;SDS011;39850;43.324;21.916;2024-03-17T12:03:59;29.0;;;29.0;;
53939;SDS011;39850;43.324;21.916;2024-03-17T12:08:36;28.0;;;28.0;;
53939;SDS011;39850;43.324;21.916;2024-03-17T12:13:13;28.0;;;28.0;;
53939;SDS011;39850;43.324;21.916;2024-03-17T12:17:53;30.0;;;29.0;;
53939;SDS011;39850;43.324;21.916;2024-03-17T12:22:30;30.0;;;29.0;;
53939;SDS011;39850;43.324;21.916;2024-03-17T12:27:08;30.0;;;29.0;;
53939;SDS011;39850;43.324;21.916;2024-03-17T12:31:44;28.0;;;28.0;;
53939;SDS011;39850;43.324;21.916;2024-03-17T12:36:21;28.0;;;28.0;;
53939;SDS011;39850;43.324;21.916;2024-03-17T13:08:58;23.0;;;23.0;;
53939;SDS011;39850;43.324;21.916;2024-03-17T13:13:35;23.0;;;23.0;;
53939;SDS011;39850;43.324;21.916;2024-03-17T13:18:20;23.0;;;23.0;;
53939;SDS011;39850;43.324;21.916;2024-03-17T13:22:59;23.0;;;23.0;;
53939;SDS011;39850;43.324;21.916;2024-03-17T13:27:36;23.0;;;23.0;;
53939;SDS011;39850;43.324;21.916;2024-03-17T13:32:13;23.0;;;23.0;;
53939;SDS011;39850;43.324;21.916;2024-03-17T13:36:53;23.0;;;23.0;;
53939;SDS011;39850;43.324;21.916;2024-03-17T13:41:30;24.0;;;24.0;;
53939;SDS011;39850;43.324;21.916;2024-03-17T13:46:08;24.0;;;24.0;;
53939;SDS011;39850;43.324;21.916;2024-03-17T13:50:45;24.0;;;24.0;;
53939;SDS011;39850;43.324;21.916;2024-03-17T13:55:26;24.0;;;24.0;;
53939;SDS011;39850;43.324;21.916;2024-03-17T14:32:26;15.0;;;14.0;;
53939;SDS011;39850;43.324;21.916;2024-03-17T14:37:05;15.0;;;14.0;;
53939;SDS011;39850;43.324;21.916;2024-03-17T14:41:42;15.0;;;14.0;;
53939;SDS011;39850;43.324;21.916;2024-03-17T14:46:19;15.0;;;14.0;;
53939;SDS011;39850;43.324;21.916;2024-03-17T14:50:56;15.0;;;14.0;;
53939;SDS011;39850;43.324;21.916;2024-03-17T14:55:33;15.0;;;14.0;;
53939;SDS011;39850;43.324;21.916;2024-03-17T15:00:14;14.0;;;14.0;;
53939;SDS011;39850;43.324;21.916;2024-03-17T15:04:52;14.0;;;14.0;;
53939;SDS011;39850;43.324;21.916;2024-03-17T15:09:28;14.0;;;14.0;;
53939;SDS011;39850;43.324;21.916;2024-03-17T15:14:05;14.0;;;14.0;;
53939;SDS011;39850;43.324;21.916;2024-03-17T15:50:59;16.0;;;15.0;;
53939;SDS011;39850;43.324;21.916;2024-03-17T15:55:36;16.0;;;15.0;;
53939;SDS011;39850;43.324;21.916;2024-03-17T16:00:15;15.0;;;14.0;;
53939;SDS011;39850;43.324;21.916;2024-03-17T16:04:55;15.0;;;14.0;;
53939;SDS011;39850;43.324;21.916;2024-03-17T16:09:33;14.0;;;14.0;;
53939;SDS011;39850;43.324;21.916;2024-03-17T16:14:10;14.0;;;14.0;;
53939;SDS011;39850;43.324;21.916;2024-03-17T16:18:48;14.0;;;14.0;;
53939;SDS011;39850;43.324;21.916;2024-03-17T16:23:31;14.0;;;14.0;;
53939;SDS011;39850;43.324;21.916;2024-03-17T16:28:17;14.0;;;14.0;;
53939;SDS011;39850;43.324;21.916;2024-03-17T16:32:54;14.0;;;13.0;;
53939;SDS011;39850;43.324;21.916;2024-03-17T16:37:30;14.0;;;13.0;;
53939;SDS011;39850;43.324;21.916;2024-03-17T17:10:30;20.0;;;18.0;;
53939;SDS011;39850;43.324;21.916;2024-03-17T17:15:16;20.0;;;18.0;;
53939;SDS011;39850;43.324;21.916;2024-03-17T17:19:54;20.0;;;18.0;;
53939;SDS011;39850;43.324;21.916;2024-03-17T17:24:31;20.0;;;18.0;;
53939;SDS011;39850;43.324;21.916;2024-03-17T17:29:07;21.0;;;19.0;;
53939;SDS011;39850;43.324;21.916;2024-03-17T17:33:44;21.0;;;19.0;;
53939;SDS011;39850;43.324;21.916;2024-03-17T17:38:21;21.0;;;19.0;;
53939;SDS011;39850;43.324;21.916;2024-03-17T17:42:58;27.0;;;24.0;;
53939;SDS011;39850;43.324;21.916;2024-03-17T17:47:35;27.0;;;24.0;;
53939;SDS011;39850;43.324;21.916;2024-03-17T17:52:12;33.0;;;28.0;;
53939;SDS011;39850;43.324;21.916;2024-03-17T17:56:49;33.0;;;28.0;;
53939;SDS011;39850;43.324;21.916;2024-03-17T18:29:06;95.0;;;77.0;;
53939;SDS011;39850;43.324;21.916;2024-03-17T18:33:42;95.0;;;77.0;;
53939;SDS011;39850;43.324;21.916;2024-03-17T18:38:23;95.0;;;77.0;;
53939;SDS011;39850;43.324;21.916;2024-03-17T18:42:59;108.0;;;86.0;;
53939;SDS011;39850;43.324;21.916;2024-03-17T18:47:36;108.0;;;86.0;;
53939;SDS011;39850;43.324;21.916;2024-03-17T18:52:12;95.0;;;77.0;;
53939;SDS011;39850;43.324;21.916;2024-03-17T18:56:49;95.0;;;77.0;;
53939;SDS011;39850;43.324;21.916;2024-03-17T19:01:26;102.0;;;82.0;;
53939;SDS011;39850;43.324;21.916;2024-03-17T19:06:11;102.0;;;82.0;;
53939;SDS011;39850;43.324;21.916;2024-03-17T19:10:55;82.0;;;69.0;;
53939;SDS011;39850;43.324;21.916;2024-03-17T19:15:32;82.0;;;69.0;;
53939;SDS011;39850;43.324;21.916;2024-03-17T19:52:34;51.0;;;47.0;;
53939;SDS011;39850;43.324;21.916;2024-03-17T19:57:11;51.0;;;47.0;;
53939;SDS011;39850;43.324;21.916;2024-03-17T20:01:48;48.0;;;44.0;;
53939;SDS011;39850;43.324;21.916;2024-03-17T20:06:27;48.0;;;44.0;;
53939;SDS011;39850;43.324;21.916;2024-03-17T20:11:04;46.0;;;42.0;;
53939;SDS011;39850;43.324;21.916;2024-03-17T20:15:40;46.0;;;42.0;;
53939;SDS011;39850;43.324;21.916;2024-03-17T20:20:17;46.0;;;42.0;;
53939;SDS011;39850;43.324;21.916;2024-03-17T20:24:54;46.0;;;42.0;;
53939;SDS011;39850;43.324;21.916;2024-03-17T20:29:30;46.0;;;42.0;;
53939;SDS011;39850;43.324;21.916;2024-03-17T20:34:07;46.0;;;42.0;;
53939;SDS011;39850;43.324;21.916;2024-03-17T20:38:44;46.0;;;42.0;;
53939;SDS011;39850;43.324;21.916;2024-03-17T21:11:03;32.0;;;31.0;;
53939;SDS011;39850;43.324;21.916;2024-03-17T21:15:40;32.0;;;31.0;;
53939;SDS011;39850;43.324;21.916;2024-03-17T21:20:16;32.0;;;30.0;;
53939;SDS011;39850;43.324;21.916;2024-03-17T21:24:53;32.0;;;30.0;;
53939;SDS011;39850;43.324;21.916;2024-03-17T21:29:30;32.0;;;30.0;;
53939;SDS011;39850;43.324;21.916;2024-03-17T21:34:06;32.0;;;31.0;;
53939;SDS011;39850;43.324;21.916;2024-03-17T21:38:43;32.0;;;31.0;;
53939;SDS011;39850;43.324;21.916;2024-03-17T21:43:19;33.0;;;31.0;;
53939;SDS011;39850;43.324;21.916;2024-03-17T21:47:56;33.0;;;31.0;;
53939;SDS011;39850;43.324;21.916;2024-03-17T21:52:32;34.0;;;32.0;;
53939;SDS011;39850;43.324;21.916;2024-03-17T21:57:09;34.0;;;32.0;;
53939;SDS011;39850;43.324;21.916;2024-03-17T22:34:05;40.0;;;38.0;;
53939;SDS011;39850;43.324;21.916;2024-03-17T22:38:42;40.0;;;38.0;;
53939;SDS011;39850;43.324;21.916;2024-03-17T22:43:19;38.0;;;36.0;;
53939;SDS011;39850;43.324;21.916;2024-03-17T22:47:56;38.0;;;36.0;;
53939;SDS011;39850;43.324;21.916;2024-03-17T22:52:33;40.0;;;38.0;;
53939;SDS011;39850;43.324;21.916;2024-03-17T22:57:10;40.0;;;38.0;;
53939;SDS011;39850;43.324;21.916;2024-03-17T23:01:46;40.0;;;38.0;;
53939;SDS011;39850;43.324;21.916;2024-03-17T23:06:23;40.0;;;38.0;;
53939;SDS011;39850;43.324;21.916;2024-03-17T23:11:01;44.0;;;42.0;;
53939;SDS011;39850;43.324;21.916;2024-03-17T23:15:43;44.0;;;42.0;;
53939;SDS011;39850;43.324;21.916;2024-03-17T23:52:36;60.0;;;52.0;;
53939;SDS011;39850;43.324;21.916;2024-03-17T23:57:13;60.0;;;52.0;;
